createdAt,value
2019-05-13T00:02:04.598Z,0.50
2019-05-13T00:04:34.545Z,0.80
2019-05-13T00:07:04.915Z,0.40
2019-05-13T00:09:34.591Z,0.60
2019-05-13T00:12:04.852Z,0.80
2019-05-13T00:14:34.684Z,0.65
2019-05-13T00:17:04.509Z,0.53
2019-05-13T00:19:34.202Z,1.00
2019-05-13T00:22:04.151Z,0.67
2019-05-13T00:24:34.219Z,0.80
2019-05-13T00:27:04.297Z,0.90
2019-05-13T00:29:35.211Z,0.60
2019-05-13T00:32:05.918Z,1.00
2019-05-13T00:34:36.666Z,0.70
2019-05-13T00:37:11.106Z,0.50
2019-05-13T00:39:37.659Z,1.00
2019-05-13T00:42:07.418Z,0.70
2019-05-13T00:44:37.329Z,0.67
2019-05-13T00:47:06.971Z,1.00
2019-05-13T00:49:36.623Z,0.70
2019-05-13T00:52:06.528Z,0.97
2019-05-13T00:54:36.439Z,0.90
2019-05-13T00:57:06.154Z,0.80
2019-05-13T00:59:35.804Z,0.82
2019-05-13T01:02:05.772Z,0.90
2019-05-13T01:04:35.429Z,0.90
2019-05-13T01:07:05.506Z,0.70
2019-05-13T01:09:35.159Z,0.72
2019-05-13T01:12:04.970Z,1.00
2019-05-13T01:14:34.621Z,0.67
2019-05-13T01:17:04.322Z,0.80
2019-05-13T01:19:34.518Z,0.70
2019-05-13T01:22:04.155Z,0.73
2019-05-13T01:24:34.080Z,0.60
2019-05-13T01:27:04.346Z,0.70
2019-05-13T01:29:34.557Z,0.93
2019-05-13T01:32:04.779Z,1.03
2019-05-13T01:34:34.506Z,0.80
2019-05-13T01:37:04.506Z,0.90
2019-05-13T01:39:34.959Z,1.00
2019-05-13T01:42:05.782Z,1.02
2019-05-13T01:44:35.475Z,0.70
2019-05-13T01:47:05.134Z,1.10
2019-05-13T01:49:34.791Z,0.73
2019-05-13T01:52:04.519Z,1.10
2019-05-13T01:54:34.263Z,0.97
2019-05-13T01:57:04.548Z,1.10
2019-05-13T01:59:34.895Z,0.70
2019-05-13T02:02:05.704Z,0.87
2019-05-13T02:04:35.352Z,1.40
2019-05-13T02:07:05.119Z,0.70
2019-05-13T02:09:35.010Z,0.98
2019-05-13T02:12:05.147Z,0.90
2019-05-13T02:14:34.876Z,0.88
2019-05-13T02:17:04.688Z,1.32
2019-05-13T02:19:34.591Z,1.05
2019-05-13T02:22:04.379Z,1.27
2019-05-13T02:24:34.434Z,1.33
2019-05-13T02:27:04.100Z,1.00
2019-05-13T02:29:34.383Z,0.93
2019-05-13T02:32:04.381Z,1.47
2019-05-13T02:34:34.094Z,0.93
2019-05-13T02:37:03.907Z,1.00
2019-05-13T02:39:33.578Z,0.90
2019-05-13T02:42:04.031Z,1.10
2019-05-13T02:44:33.809Z,0.90
2019-05-13T02:47:03.923Z,0.90
2019-05-13T02:49:33.823Z,0.90
2019-05-13T02:52:03.587Z,0.93
2019-05-13T02:54:34.520Z,0.80
2019-05-13T02:57:05.275Z,0.80
2019-05-13T02:59:34.919Z,0.97
2019-05-13T03:02:04.722Z,1.27
2019-05-13T03:04:34.366Z,0.97
2019-05-13T03:07:04.167Z,1.13
2019-05-13T03:09:33.823Z,1.20
2019-05-13T03:12:04.278Z,0.93
2019-05-13T03:14:34.665Z,1.30
2019-05-13T03:17:27.776Z,1.30
2019-05-13T03:19:57.510Z,1.10
2019-05-13T03:22:27.425Z,1.20
2019-05-13T03:24:58.290Z,1.03
2019-05-13T03:27:28.203Z,0.90
2019-05-13T03:29:57.841Z,1.20
2019-05-13T03:32:36.022Z,1.00
2019-05-13T03:35:00.812Z,1.20
2019-05-13T03:37:34.812Z,1.23
2019-05-13T03:40:03.615Z,1.00
2019-05-13T03:42:34.884Z,1.40
2019-05-13T03:45:04.984Z,0.97
2019-05-13T03:47:36.570Z,1.00
2019-05-13T03:50:07.532Z,1.47
2019-05-13T03:52:37.213Z,1.17
2019-05-13T03:55:07.737Z,1.00
2019-05-13T03:57:37.910Z,1.10
2019-05-13T04:00:08.009Z,1.37
2019-05-13T04:02:37.729Z,1.00
2019-05-13T04:05:07.879Z,1.23
2019-05-13T04:07:37.691Z,1.42
2019-05-13T04:10:08.654Z,1.67
2019-05-13T04:12:38.388Z,1.50
2019-05-13T04:15:12.397Z,1.05
2019-05-13T04:17:42.832Z,1.23
2019-05-13T04:20:12.872Z,1.30
2019-05-13T04:22:43.042Z,1.00
2019-05-13T04:25:12.958Z,1.23
2019-05-13T04:27:42.999Z,1.20
2019-05-13T04:30:13.593Z,1.20
2019-05-13T04:32:44.329Z,1.10
2019-05-13T04:35:14.297Z,1.47
2019-05-13T04:37:44.047Z,1.30
2019-05-13T04:40:13.780Z,1.03
2019-05-13T04:42:43.935Z,1.40
2019-05-13T04:45:13.840Z,1.20
2019-05-13T04:47:43.600Z,1.50
2019-05-13T04:50:13.691Z,1.27
2019-05-13T04:52:43.668Z,1.75
2019-05-13T04:55:13.528Z,1.07
2019-05-13T04:57:44.062Z,1.77
2019-05-13T05:00:14.167Z,1.23
2019-05-13T05:03:07.775Z,1.10
2019-05-13T05:06:04.539Z,1.10
2019-05-13T05:09:13.825Z,1.00
2019-05-13T05:12:19.312Z,1.00
2019-05-13T05:15:33.638Z,1.75
2019-05-13T05:18:15.574Z,1.00
2019-05-13T05:21:11.759Z,1.10
2019-05-13T05:24:07.726Z,1.00
2019-05-13T05:27:06.900Z,0.70
2019-05-13T05:29:57.725Z,1.55
2019-05-13T05:32:56.540Z,1.15
2019-05-13T05:36:06.411Z,1.17
2019-05-13T05:39:16.573Z,0.63
2019-05-13T05:41:48.001Z,1.10
2019-05-13T05:44:21.442Z,1.17
2019-05-13T05:46:54.461Z,0.97
2019-05-13T05:49:26.231Z,1.00
2019-05-13T05:52:04.057Z,1.10
2019-05-13T05:54:35.707Z,1.40
2019-05-13T05:57:07.587Z,1.20
2019-05-13T05:59:39.076Z,1.27
2019-05-13T06:02:12.128Z,1.40
2019-05-13T06:04:43.190Z,1.20
2019-05-13T06:07:14.499Z,1.53
2019-05-13T06:09:44.225Z,1.03
2019-05-13T06:12:14.067Z,1.32
2019-05-13T06:14:44.154Z,1.40
2019-05-13T06:17:13.806Z,1.33
2019-05-13T06:19:43.536Z,1.60
2019-05-13T06:22:13.502Z,1.00
2019-05-13T06:24:43.403Z,1.25
2019-05-13T06:27:14.035Z,1.20
2019-05-13T06:29:43.969Z,1.23
2019-05-13T06:32:21.972Z,1.10
2019-05-13T06:34:45.065Z,1.10
2019-05-13T06:37:14.800Z,1.60
2019-05-13T06:39:44.605Z,1.80
2019-05-13T06:42:14.276Z,1.47
2019-05-13T06:44:44.897Z,1.20
2019-05-13T06:47:14.551Z,1.40
2019-05-13T06:49:44.228Z,1.40
2019-05-13T06:52:13.958Z,1.23
2019-05-13T06:54:43.616Z,1.17
2019-05-13T06:57:13.630Z,1.50
2019-05-13T06:59:44.269Z,1.33
2019-05-13T07:02:14.179Z,1.30
2019-05-13T07:04:45.064Z,2.00
2019-05-13T07:07:17.371Z,1.40
2019-05-13T07:09:46.321Z,1.27
2019-05-13T07:12:16.264Z,1.63
2019-05-13T07:14:45.926Z,1.80
2019-05-13T07:17:15.597Z,1.90
2019-05-13T07:19:45.244Z,1.42
2019-05-13T07:22:14.888Z,1.47
2019-05-13T07:24:44.543Z,2.00
2019-05-13T07:27:15.156Z,1.70
2019-05-13T07:29:44.812Z,1.63
2019-05-13T07:32:14.461Z,1.80
2019-05-13T07:34:44.350Z,1.20
2019-05-13T07:37:14.172Z,1.67
2019-05-13T07:39:44.444Z,1.72
2019-05-13T07:42:14.154Z,1.42
2019-05-13T07:44:43.760Z,1.63
2019-05-13T07:47:15.829Z,1.67
2019-05-13T07:49:44.774Z,1.80
2019-05-13T07:52:14.416Z,1.47
2019-05-13T07:54:44.323Z,1.60
2019-05-13T07:57:14.497Z,1.90
2019-05-13T07:59:44.143Z,1.80
2019-05-13T08:02:13.796Z,1.70
2019-05-13T08:04:43.454Z,2.33
2019-05-13T08:07:13.284Z,1.40
2019-05-13T08:09:42.936Z,1.77
2019-05-13T08:12:14.521Z,1.52
2019-05-13T08:14:44.375Z,1.90
2019-05-13T08:17:14.994Z,1.55
2019-05-13T08:19:44.657Z,1.40
2019-05-13T08:22:14.566Z,1.40
2019-05-13T08:24:45.445Z,2.00
2019-05-13T08:27:15.100Z,1.67
2019-05-13T08:29:44.724Z,1.37
2019-05-13T08:32:14.385Z,1.30
2019-05-13T08:34:44.024Z,1.70
2019-05-13T08:37:13.825Z,1.10
2019-05-13T08:39:43.853Z,1.40
2019-05-13T08:42:19.010Z,1.42
2019-05-13T08:44:44.821Z,1.73
2019-05-13T08:47:14.479Z,2.03
2019-05-13T08:49:44.114Z,1.60
2019-05-13T08:52:13.843Z,1.20
2019-05-13T08:54:43.489Z,1.32
2019-05-13T08:57:13.148Z,1.60
2019-05-13T08:59:42.788Z,1.10
2019-05-13T09:02:12.612Z,1.70
2019-05-13T09:04:42.610Z,1.83
2019-05-13T09:07:12.431Z,1.50
2019-05-13T09:09:42.235Z,1.50
2019-05-13T09:12:28.185Z,1.57
2019-05-13T09:14:44.459Z,1.65
2019-05-13T09:17:15.283Z,1.60
2019-05-13T09:19:44.926Z,1.33
2019-05-13T09:22:14.668Z,1.47
2019-05-13T09:24:44.336Z,1.50
2019-05-13T09:27:14.069Z,1.00
2019-05-13T09:29:43.720Z,1.70
2019-05-13T09:32:13.390Z,1.30
2019-05-13T09:34:43.024Z,1.00
2019-05-13T09:37:13.374Z,1.10
2019-05-13T09:39:43.022Z,0.88
2019-05-13T09:42:12.949Z,1.42
2019-05-13T09:44:42.615Z,1.50
2019-05-13T09:47:12.757Z,1.50
2019-05-13T09:49:42.771Z,1.53
2019-05-13T09:52:12.719Z,1.67
2019-05-13T09:54:42.900Z,1.23
2019-05-13T09:57:13.538Z,1.50
2019-05-13T09:59:43.931Z,1.53
2019-05-13T10:02:13.583Z,1.23
2019-05-13T10:04:43.988Z,1.43
2019-05-13T10:07:14.775Z,0.88
2019-05-13T10:09:48.250Z,1.67
2019-05-13T10:12:16.313Z,1.17
2019-05-13T10:14:46.205Z,1.52
2019-05-13T10:17:15.882Z,1.40
2019-05-13T10:19:45.526Z,1.70
2019-05-13T10:22:15.271Z,1.17
2019-05-13T10:24:44.992Z,1.40
2019-05-13T10:27:18.776Z,1.37
2019-05-13T10:29:46.530Z,1.50
2019-05-13T10:32:16.372Z,1.77
2019-05-13T10:34:46.802Z,1.80
2019-05-13T10:37:16.614Z,1.10
2019-05-13T10:39:46.327Z,1.43
2019-05-13T10:42:15.987Z,1.67
2019-05-13T10:44:45.901Z,1.80
2019-05-13T10:47:16.730Z,0.90
2019-05-13T10:49:46.375Z,1.13
2019-05-13T10:52:16.042Z,1.17
2019-05-13T10:54:45.693Z,0.90
2019-05-13T10:57:16.862Z,1.40
2019-05-13T10:59:46.510Z,1.20
2019-05-13T11:02:16.180Z,1.10
2019-05-13T11:04:45.826Z,1.07
2019-05-13T11:07:15.571Z,1.13
2019-05-13T11:09:45.536Z,1.10
2019-05-13T11:12:15.211Z,0.87
2019-05-13T11:14:46.741Z,1.40
2019-05-13T11:17:16.765Z,1.73
2019-05-13T11:19:46.466Z,1.03
2019-05-13T11:22:16.109Z,1.40
2019-05-13T11:24:45.773Z,0.90
2019-05-13T11:27:15.434Z,1.02
2019-05-13T11:29:45.160Z,1.03
2019-05-13T11:32:14.813Z,1.50
2019-05-13T11:34:44.484Z,1.20
2019-05-13T11:37:14.126Z,1.00
2019-05-13T11:39:43.803Z,1.42
2019-05-13T11:42:14.036Z,1.22
2019-05-13T11:44:43.765Z,1.13
2019-05-13T11:47:13.414Z,1.30
2019-05-13T11:49:43.066Z,1.20
2019-05-13T11:52:12.710Z,1.27
2019-05-13T11:54:42.677Z,1.47
2019-05-13T11:57:12.781Z,1.20
2019-05-13T11:59:43.261Z,1.30
2019-05-13T12:02:13.972Z,1.60
2019-05-13T12:04:44.203Z,1.47
2019-05-13T12:07:13.956Z,1.27
2019-05-13T12:09:44.721Z,1.00
2019-05-13T12:12:14.375Z,1.27
2019-05-13T12:15:16.145Z,1.17
2019-05-13T12:17:15.986Z,1.53
2019-05-13T12:19:45.900Z,1.10
2019-05-13T12:22:15.605Z,1.25
2019-05-13T12:24:45.469Z,1.77
2019-05-13T12:27:15.177Z,1.40
2019-05-13T12:29:45.878Z,1.37
2019-05-13T12:32:15.550Z,1.50
2019-05-13T12:34:46.120Z,0.95
2019-05-13T12:37:16.131Z,1.30
2019-05-13T12:39:45.801Z,1.50
2019-05-13T12:42:15.655Z,1.27
2019-05-13T12:45:00.316Z,1.55
2019-05-13T12:47:17.903Z,1.20
2019-05-13T12:49:47.974Z,1.32
2019-05-13T12:52:17.889Z,1.03
2019-05-13T12:54:47.546Z,1.73
2019-05-13T12:57:17.537Z,1.30
2019-05-13T12:59:47.193Z,1.30
2019-05-13T13:02:16.845Z,1.20
2019-05-13T13:05:07.750Z,1.40
2019-05-13T13:07:18.716Z,1.02
2019-05-13T13:09:48.625Z,1.20
2019-05-13T13:12:18.346Z,1.50
2019-05-13T13:14:48.012Z,1.40
2019-05-13T13:17:17.656Z,1.27
2019-05-13T13:19:47.578Z,0.90
2019-05-13T13:22:17.240Z,1.20
2019-05-13T13:24:51.684Z,1.12
2019-05-13T13:27:26.034Z,1.27
2019-05-13T13:30:01.686Z,1.55
2019-05-13T13:32:24.682Z,1.40
2019-05-13T13:34:54.905Z,1.00
2019-05-13T13:37:24.259Z,1.10
2019-05-13T13:39:54.944Z,1.40
2019-05-13T13:42:25.235Z,1.20
2019-05-13T13:44:54.888Z,1.02
2019-05-13T13:47:24.694Z,0.97
2019-05-13T13:49:54.926Z,1.20
2019-05-13T13:52:24.677Z,1.20
2019-05-13T13:55:02.941Z,0.80
2019-05-13T13:57:26.062Z,1.00
2019-05-13T14:00:20.153Z,0.83
2019-05-13T14:02:28.283Z,0.80
2019-05-13T14:04:58.437Z,1.00
2019-05-13T14:07:35.855Z,0.82
2019-05-13T14:10:04.166Z,0.90
2019-05-13T14:12:32.482Z,1.10
2019-05-13T14:15:02.347Z,0.87
2019-05-13T14:17:32.025Z,1.17
2019-05-13T14:20:02.228Z,0.70
2019-05-13T14:22:32.356Z,0.83
2019-05-13T14:25:02.039Z,0.90
2019-05-13T14:27:32.771Z,0.80
2019-05-13T14:30:02.420Z,0.70
2019-05-13T14:32:32.200Z,0.78
2019-05-13T14:35:02.618Z,1.10
2019-05-13T14:37:32.423Z,0.90
2019-05-13T14:40:02.595Z,0.90
2019-05-13T14:42:32.415Z,1.10
2019-05-13T14:45:02.243Z,0.70
2019-05-13T14:47:32.878Z,0.93
2019-05-13T14:50:02.683Z,1.00
2019-05-13T14:52:33.653Z,0.80
2019-05-13T14:55:03.299Z,0.70
2019-05-13T14:57:32.959Z,0.83
2019-05-13T15:00:03.753Z,1.00
2019-05-13T15:02:35.833Z,0.70
2019-05-13T15:05:05.130Z,0.60
2019-05-13T15:07:34.881Z,0.80
2019-05-13T15:10:05.998Z,0.90
2019-05-13T15:12:35.652Z,1.00
2019-05-13T15:15:06.189Z,1.00
2019-05-13T15:17:36.177Z,0.70
2019-05-13T15:20:07.041Z,0.87
2019-05-13T15:22:36.718Z,0.73
2019-05-13T15:25:07.152Z,0.90
2019-05-13T15:27:36.817Z,0.70
2019-05-13T15:30:17.449Z,0.80
2019-05-13T15:32:41.953Z,0.90
2019-05-13T15:35:13.389Z,0.70
2019-05-13T15:37:42.450Z,1.30
2019-05-13T15:40:12.733Z,0.60
2019-05-13T15:42:42.745Z,1.00
2019-05-13T15:45:12.747Z,0.97
2019-05-13T15:47:42.711Z,1.00
2019-05-13T15:50:12.592Z,1.00
2019-05-13T15:52:43.575Z,1.05
2019-05-13T15:55:13.500Z,0.90
2019-05-13T15:57:43.394Z,1.13
2019-05-13T16:00:13.897Z,0.75
2019-05-13T16:02:43.796Z,0.93
2019-05-13T16:05:13.833Z,0.80
2019-05-13T16:07:43.546Z,0.75
2019-05-13T16:10:13.347Z,0.73
2019-05-13T16:12:43.260Z,1.00
2019-05-13T16:15:15.822Z,0.80
2019-05-13T16:17:45.065Z,0.87
2019-05-13T16:20:15.020Z,0.90
2019-05-13T16:22:44.682Z,0.65
2019-05-13T16:25:16.213Z,0.77
2019-05-13T16:27:45.886Z,0.83
2019-05-13T16:30:15.802Z,0.83
2019-05-13T16:32:48.128Z,0.70
2019-05-13T16:35:17.047Z,0.80
2019-05-13T16:37:46.975Z,0.93
2019-05-13T16:40:16.912Z,1.10
2019-05-13T16:42:46.632Z,1.10
2019-05-13T16:45:16.711Z,1.50
2019-05-13T16:47:57.220Z,1.47
2019-05-13T16:50:18.050Z,1.00
2019-05-13T16:52:47.998Z,1.05
2019-05-13T16:55:17.816Z,0.90
2019-05-13T16:57:47.482Z,1.40
2019-05-13T17:00:17.938Z,1.27
2019-05-13T17:02:47.732Z,1.30
2019-05-13T17:05:17.530Z,1.00
2019-05-13T17:07:47.198Z,0.90
2019-05-13T17:10:17.114Z,1.03
2019-05-13T17:12:46.790Z,0.85
2019-05-13T17:15:16.793Z,1.10
2019-05-13T17:17:46.608Z,1.03
2019-05-13T17:20:16.337Z,1.00
2019-05-13T17:22:46.074Z,0.90
2019-05-13T17:25:16.128Z,1.00
2019-05-13T17:27:45.816Z,1.13
2019-05-13T17:30:15.940Z,1.03
2019-05-13T17:32:45.607Z,0.88
2019-05-13T17:35:15.498Z,0.90
2019-05-13T17:37:45.161Z,1.00
2019-05-13T17:40:15.221Z,0.90
2019-05-13T17:42:44.879Z,1.07
2019-05-13T17:45:14.776Z,0.78
2019-05-13T17:47:44.435Z,0.90
2019-05-13T17:50:14.535Z,1.10
2019-05-13T17:52:44.443Z,1.33
2019-05-13T17:55:14.244Z,1.20
2019-05-13T17:57:44.159Z,1.20
2019-05-13T18:00:14.068Z,1.30
2019-05-13T18:02:43.822Z,1.10
2019-05-13T18:05:13.716Z,1.33
2019-05-13T18:07:43.628Z,1.27
2019-05-13T18:10:14.623Z,1.00
2019-05-13T18:12:44.285Z,1.00
2019-05-13T18:15:15.052Z,0.80
2019-05-13T18:17:44.804Z,1.00
2019-05-13T18:20:14.939Z,1.20
2019-05-13T18:22:44.612Z,1.50
2019-05-13T18:25:14.630Z,1.20
2019-05-13T18:27:44.920Z,0.87
2019-05-13T18:30:14.830Z,1.10
2019-05-13T18:32:45.475Z,1.10
2019-05-13T18:35:15.685Z,1.00
2019-05-13T18:37:45.328Z,0.80
2019-05-13T18:40:15.444Z,1.15
2019-05-13T18:42:45.137Z,1.13
2019-05-13T18:45:15.096Z,1.20
2019-05-13T18:47:45.169Z,1.10
2019-05-13T18:50:15.029Z,1.00
2019-05-13T18:52:44.695Z,1.10
2019-05-13T18:55:14.738Z,1.27
2019-05-13T18:57:46.048Z,1.30
2019-05-13T19:00:16.127Z,1.30
2019-05-13T19:02:45.802Z,1.20
2019-05-13T19:05:15.812Z,0.80
2019-05-13T19:07:45.814Z,1.40
2019-05-13T19:10:15.593Z,0.80
2019-05-13T19:12:45.644Z,1.00
2019-05-13T19:15:15.599Z,1.00
2019-05-13T19:17:45.344Z,0.90
2019-05-13T19:20:15.871Z,1.00
2019-05-13T19:22:45.532Z,0.83
2019-05-13T19:25:15.420Z,1.10
2019-05-13T19:27:45.729Z,1.00
2019-05-13T19:30:15.481Z,1.27
2019-05-13T19:32:45.145Z,0.90
2019-05-13T19:35:14.912Z,1.00
2019-05-13T19:37:45.274Z,0.97
2019-05-13T19:40:15.299Z,0.88
2019-05-13T19:42:44.952Z,1.10
2019-05-13T19:45:15.148Z,1.23
2019-05-13T19:47:44.867Z,1.17
2019-05-13T19:50:14.789Z,1.37
2019-05-13T19:52:44.440Z,0.80
2019-05-13T19:55:14.124Z,0.93
2019-05-13T19:57:43.848Z,1.33
2019-05-13T20:00:14.398Z,1.20
2019-05-13T20:02:44.244Z,1.07
2019-05-13T20:05:14.307Z,1.40
2019-05-13T20:07:44.310Z,0.97
2019-05-13T20:10:14.631Z,1.27
2019-05-13T20:12:44.310Z,1.00
2019-05-13T20:15:14.292Z,1.27
2019-05-13T20:17:44.214Z,1.20
2019-05-13T20:20:14.663Z,1.40
2019-05-13T20:22:44.476Z,1.30
2019-05-13T20:25:14.790Z,1.17
2019-05-13T20:27:44.457Z,1.47
2019-05-13T20:30:15.434Z,1.90
2019-05-13T20:32:45.085Z,1.60
2019-05-13T20:35:14.753Z,1.77
2019-05-13T20:37:44.651Z,1.83
2019-05-13T20:40:14.409Z,2.63
2019-05-13T20:42:44.056Z,2.83
2019-05-13T20:45:13.880Z,2.23
2019-05-13T20:47:43.534Z,1.65
2019-05-13T20:50:13.765Z,1.63
2019-05-13T20:52:43.424Z,1.37
2019-05-13T20:55:13.168Z,1.23
2019-05-13T20:57:43.072Z,1.52
2019-05-13T21:00:13.238Z,2.10
2019-05-13T21:02:42.892Z,1.70
2019-05-13T21:05:12.736Z,1.80
2019-05-13T21:07:42.793Z,2.60
2019-05-13T21:10:13.679Z,2.53
2019-05-13T21:12:43.411Z,1.57
2019-05-13T21:15:13.316Z,1.20
2019-05-13T21:17:43.000Z,1.20
2019-05-13T21:20:19.444Z,1.30
2019-05-13T21:22:44.733Z,0.93
2019-05-13T21:25:15.520Z,0.77
2019-05-13T21:27:45.188Z,1.00
2019-05-13T21:30:15.293Z,1.30
2019-05-13T21:32:45.024Z,1.23
2019-05-13T21:35:14.766Z,1.47
2019-05-13T21:37:44.430Z,1.17
2019-05-13T21:40:17.464Z,0.97
2019-05-13T21:42:47.129Z,1.07
2019-05-13T21:45:17.045Z,1.20
2019-05-13T21:47:46.772Z,0.80
2019-05-13T21:50:30.384Z,1.10
2019-05-13T21:52:48.492Z,1.07
2019-05-13T21:55:19.114Z,1.00
2019-05-13T21:57:48.768Z,0.87
2019-05-13T22:00:23.724Z,0.90
2019-05-13T22:02:55.063Z,1.07
2019-05-13T22:05:26.584Z,1.17
2019-05-13T22:07:56.490Z,0.93
2019-05-13T22:10:26.138Z,0.90
2019-05-13T22:12:55.806Z,1.10
2019-05-13T22:15:25.458Z,1.10
2019-05-13T22:17:55.199Z,1.00
2019-05-13T22:20:24.839Z,0.77
2019-05-13T22:22:54.800Z,0.90
2019-05-13T22:25:24.520Z,0.80
2019-05-13T22:27:57.155Z,1.00
2019-05-13T22:30:26.866Z,1.40
2019-05-13T22:32:56.779Z,0.90
2019-05-13T22:35:26.694Z,0.80
2019-05-13T22:37:56.678Z,1.00
2019-05-13T22:40:26.341Z,0.97
2019-05-13T22:42:56.896Z,0.70
2019-05-13T22:45:26.673Z,0.90
2019-05-13T22:47:56.337Z,0.70
2019-05-13T22:50:26.076Z,1.05
2019-05-13T22:52:55.734Z,0.88
2019-05-13T22:55:25.614Z,1.10
2019-05-13T22:57:55.335Z,0.90
2019-05-13T23:00:25.232Z,0.70
2019-05-13T23:02:55.200Z,0.93
2019-05-13T23:05:24.846Z,1.25
2019-05-13T23:07:54.703Z,1.10
2019-05-13T23:10:24.631Z,0.80
2019-05-13T23:12:54.302Z,1.13
2019-05-13T23:15:24.022Z,0.83
2019-05-13T23:17:53.685Z,1.03
2019-05-13T23:20:23.333Z,0.97
2019-05-13T23:22:52.994Z,1.12
2019-05-13T23:25:22.655Z,1.02
2019-05-13T23:27:52.565Z,1.20
2019-05-13T23:30:22.220Z,1.03
2019-05-13T23:32:52.148Z,0.80
2019-05-13T23:35:21.836Z,0.97
2019-05-13T23:37:51.455Z,1.17
2019-05-13T23:40:21.371Z,0.77
2019-05-13T23:42:51.903Z,1.00
2019-05-13T23:45:22.655Z,0.82
2019-05-13T23:47:52.449Z,1.10
2019-05-13T23:50:22.435Z,1.00
2019-05-13T23:52:52.113Z,0.98
2019-05-13T23:55:22.612Z,0.90
2019-05-13T23:57:52.589Z,1.13
